createdAt,value
2019-02-09T00:02:18.040Z,2.30
2019-02-09T00:04:48.433Z,2.57
2019-02-09T00:07:18.803Z,2.60
2019-02-09T00:09:49.901Z,2.97
2019-02-09T00:12:20.279Z,2.57
2019-02-09T00:14:53.618Z,2.53
2019-02-09T00:17:24.603Z,2.70
2019-02-09T00:19:54.819Z,2.80
2019-02-09T00:22:25.272Z,2.57
2019-02-09T00:24:57.137Z,2.53
2019-02-09T00:27:29.809Z,2.80
2019-02-09T00:29:59.994Z,2.50
2019-02-09T00:32:30.774Z,2.70
2019-02-09T00:35:01.277Z,2.70
2019-02-09T00:37:31.593Z,2.90
2019-02-09T00:40:07.369Z,2.57
2019-02-09T00:42:37.744Z,2.97
2019-02-09T00:45:09.046Z,2.80
2019-02-09T00:47:39.796Z,2.93
2019-02-09T00:50:10.638Z,3.63
2019-02-09T00:52:40.891Z,2.90
2019-02-09T00:55:12.317Z,2.73
2019-02-09T00:57:43.363Z,2.60
2019-02-09T01:00:17.013Z,3.00
2019-02-09T01:02:50.379Z,3.40
2019-02-09T01:05:26.705Z,2.70
2019-02-09T01:07:56.882Z,2.97
2019-02-09T01:10:32.555Z,2.70
2019-02-09T01:13:02.994Z,3.50
2019-02-09T01:15:33.320Z,2.70
2019-02-09T01:18:03.553Z,2.93
2019-02-09T01:20:34.013Z,3.13
2019-02-09T01:23:05.204Z,3.33
2019-02-09T01:25:35.962Z,2.90
2019-02-09T01:28:06.858Z,2.97
2019-02-09T01:30:40.603Z,3.07
2019-02-09T01:33:11.310Z,3.00
2019-02-09T01:35:41.775Z,2.80
2019-02-09T01:38:12.316Z,2.60
2019-02-09T01:40:42.693Z,2.80
2019-02-09T01:43:13.486Z,3.03
2019-02-09T01:45:43.742Z,3.10
2019-02-09T01:48:14.202Z,2.50
2019-02-09T01:50:47.627Z,3.77
2019-02-09T01:53:18.266Z,2.40
2019-02-09T01:55:48.555Z,2.50
2019-02-09T01:58:19.305Z,2.90
2019-02-09T02:00:50.243Z,2.30
2019-02-09T02:03:20.565Z,2.43
2019-02-09T02:05:50.850Z,2.80
2019-02-09T02:08:24.090Z,2.83
2019-02-09T02:10:54.569Z,2.30
2019-02-09T02:13:24.902Z,2.67
2019-02-09T02:15:55.625Z,2.20
2019-02-09T02:18:25.816Z,2.80
2019-02-09T02:20:56.042Z,2.50
2019-02-09T02:23:26.361Z,2.50
2019-02-09T02:25:56.550Z,2.80
2019-02-09T02:28:27.084Z,2.30
2019-02-09T02:30:57.949Z,2.70
2019-02-09T02:33:28.205Z,2.77
2019-02-09T02:35:58.656Z,2.40
2019-02-09T02:38:28.954Z,2.57
2019-02-09T02:40:59.151Z,2.77
2019-02-09T02:43:30.120Z,3.20
2019-02-09T02:46:00.732Z,3.03
2019-02-09T02:48:30.888Z,3.00
2019-02-09T02:51:01.333Z,2.53
2019-02-09T02:53:32.025Z,2.63
2019-02-09T02:56:02.299Z,2.80
2019-02-09T02:58:32.707Z,2.90
2019-02-09T03:01:03.258Z,3.47
2019-02-09T03:03:33.720Z,3.10
2019-02-09T03:06:04.606Z,3.20
2019-02-09T03:08:35.178Z,3.20
2019-02-09T03:11:05.297Z,4.00
2019-02-09T03:13:35.426Z,3.23
2019-02-09T03:16:08.529Z,3.93
2019-02-09T03:18:38.958Z,3.73
2019-02-09T03:21:10.136Z,3.37
2019-02-09T03:23:40.805Z,3.73
2019-02-09T03:26:11.598Z,3.77
2019-02-09T03:28:41.894Z,4.00
2019-02-09T03:31:12.055Z,3.67
2019-02-09T03:33:42.567Z,3.87
2019-02-09T03:36:13.004Z,3.63
2019-02-09T03:38:43.309Z,4.23
2019-02-09T03:41:13.453Z,4.03
2019-02-09T03:43:44.092Z,4.30
2019-02-09T03:46:14.863Z,4.43
2019-02-09T03:48:45.165Z,4.57
2019-02-09T03:51:15.907Z,3.63
2019-02-09T03:53:46.363Z,4.27
2019-02-09T03:56:16.483Z,4.10
2019-02-09T03:58:46.558Z,4.10
2019-02-09T04:01:17.997Z,4.40
2019-02-09T04:03:49.505Z,4.00
2019-02-09T04:06:19.586Z,3.57
2019-02-09T04:08:50.290Z,4.03
2019-02-09T04:11:20.902Z,3.60
2019-02-09T04:13:51.277Z,2.90
2019-02-09T04:16:22.074Z,3.30
2019-02-09T04:18:52.270Z,3.00
2019-02-09T04:21:22.528Z,3.00
2019-02-09T04:23:53.371Z,3.33
2019-02-09T04:26:24.142Z,2.80
2019-02-09T04:28:54.257Z,2.90
2019-02-09T13:05:54.103Z,2.50
2019-02-09T13:08:24.485Z,2.10
2019-02-09T13:10:55.398Z,2.27
2019-02-09T22:29:44.462Z,2.80
2019-02-09T22:32:14.846Z,2.10
2019-02-09T22:34:47.869Z,2.00
2019-02-09T22:37:18.346Z,1.90
2019-02-09T22:39:48.693Z,2.27
2019-02-09T22:42:18.938Z,2.40
2019-02-09T22:44:49.874Z,2.30
2019-02-09T22:47:20.913Z,2.00
2019-02-09T22:49:52.138Z,2.20
2019-02-09T22:52:22.568Z,2.70
2019-02-09T22:54:53.494Z,2.30
2019-02-09T22:57:23.914Z,2.27
2019-02-09T22:59:54.489Z,2.37
2019-02-09T23:02:24.643Z,2.87
2019-02-09T23:05:18.137Z,2.10
2019-02-09T23:07:48.781Z,2.07
2019-02-09T23:10:20.278Z,2.40
2019-02-09T23:12:51.136Z,2.40
2019-02-09T23:15:23.193Z,2.40
2019-02-09T23:17:53.515Z,2.20
2019-02-09T23:20:24.242Z,2.50
2019-02-09T23:22:54.432Z,3.23
2019-02-09T23:25:24.613Z,2.57
2019-02-09T23:27:55.014Z,2.57
2019-02-09T23:30:25.489Z,2.83
2019-02-09T23:32:55.926Z,2.50
2019-02-09T23:35:26.516Z,2.00
2019-02-09T23:37:58.846Z,3.00
2019-02-09T23:40:30.973Z,2.57
2019-02-09T23:43:03.229Z,2.97
2019-02-09T23:45:34.410Z,2.77
2019-02-09T23:48:05.872Z,3.13
2019-02-09T23:50:36.070Z,2.90
2019-02-09T23:53:06.753Z,3.27
2019-02-09T23:55:36.869Z,3.00
2019-02-09T23:58:07.682Z,2.80
